Terminal Aerodrome Forecast
Issued by NWS Jackson, MS

Home | Current Version | Previous Version | Text Only | Print | Product List | Glossary On
Versions: 1 2 3 4 5 6 7 8 9 10 11 12 13
000
FTUS44 KMEG 012300
TAFTUP
TAF
KTUP 012336Z 0200/0224 17004KT P6SM SKC
     FM021000 18005KT P6SM BKN040
     FM021400 19008KT P6SM VCSH SCT025 BKN040
      TEMPO 0214/0217 BKN025 OVC040
     FM021800 21010KT P6SM VCTS SCT035CB BKN050=

USA.gov is the U.S. government's official web portal to all federal, state and local government web resources and services.